sensor_id;sensor_type;location;lat;lon;timestamp;P1;durP1;ratioP1;P2;durP2;ratioP2
18190;SDS011;47004;51.366;12.348;2023-02-21T00:00:32;9.50;;;3.60;;
18190;SDS011;47004;51.366;12.348;2023-02-21T00:02:51;7.70;;;3.07;;
18190;SDS011;47004;51.366;12.348;2023-02-21T00:05:11;7.37;;;3.50;;
18190;SDS011;47004;51.366;12.348;2023-02-21T00:07:31;6.17;;;3.57;;
18190;SDS011;47004;51.366;12.348;2023-02-21T00:09:52;7.43;;;3.20;;
18190;SDS011;47004;51.366;12.348;2023-02-21T00:12:11;6.40;;;3.13;;
18190;SDS011;47004;51.366;12.348;2023-02-21T00:14:31;6.07;;;3.47;;
18190;SDS011;47004;51.366;12.348;2023-02-21T00:16:50;7.17;;;3.23;;
18190;SDS011;47004;51.366;12.348;2023-02-21T00:19:10;5.93;;;3.30;;
18190;SDS011;47004;51.366;12.348;2023-02-21T00:21:29;5.40;;;3.17;;
18190;SDS011;47004;51.366;12.348;2023-02-21T00:23:49;7.17;;;3.80;;
18190;SDS011;47004;51.366;12.348;2023-02-21T00:26:09;6.33;;;3.33;;
18190;SDS011;47004;51.366;12.348;2023-02-21T00:28:30;6.10;;;3.40;;
18190;SDS011;47004;51.366;12.348;2023-02-21T00:30:50;5.57;;;3.27;;
18190;SDS011;47004;51.366;12.348;2023-02-21T00:33:09;9.57;;;4.17;;
18190;SDS011;47004;51.366;12.348;2023-02-21T00:35:28;7.03;;;3.60;;
18190;SDS011;47004;51.366;12.348;2023-02-21T00:37:48;8.03;;;3.50;;
18190;SDS011;47004;51.366;12.348;2023-02-21T00:40:10;6.33;;;3.30;;
18190;SDS011;47004;51.366;12.348;2023-02-21T00:42:31;7.07;;;3.80;;
18190;SDS011;47004;51.366;12.348;2023-02-21T00:44:51;8.40;;;4.03;;
18190;SDS011;47004;51.366;12.348;2023-02-21T00:47:10;6.23;;;3.50;;
18190;SDS011;47004;51.366;12.348;2023-02-21T00:49:29;5.57;;;3.13;;
18190;SDS011;47004;51.366;12.348;2023-02-21T00:51:49;5.80;;;3.50;;
18190;SDS011;47004;51.366;12.348;2023-02-21T00:54:09;6.80;;;3.73;;
18190;SDS011;47004;51.366;12.348;2023-02-21T00:56:29;5.93;;;3.60;;
18190;SDS011;47004;51.366;12.348;2023-02-21T00:58:49;5.73;;;3.90;;
18190;SDS011;47004;51.366;12.348;2023-02-21T01:01:09;6.60;;;3.87;;
18190;SDS011;47004;51.366;12.348;2023-02-21T01:03:28;6.43;;;3.77;;
18190;SDS011;47004;51.366;12.348;2023-02-21T01:05:47;8.20;;;4.00;;
18190;SDS011;47004;51.366;12.348;2023-02-21T01:08:07;5.60;;;3.47;;
18190;SDS011;47004;51.366;12.348;2023-02-21T01:10:27;9.23;;;4.43;;
18190;SDS011;47004;51.366;12.348;2023-02-21T01:12:46;8.30;;;4.17;;
18190;SDS011;47004;51.366;12.348;2023-02-21T01:15:07;9.13;;;4.13;;
18190;SDS011;47004;51.366;12.348;2023-02-21T01:17:27;8.57;;;3.97;;
18190;SDS011;47004;51.366;12.348;2023-02-21T01:19:46;7.43;;;3.80;;
18190;SDS011;47004;51.366;12.348;2023-02-21T01:22:05;7.20;;;4.17;;
18190;SDS011;47004;51.366;12.348;2023-02-21T01:24:25;7.17;;;3.90;;
18190;SDS011;47004;51.366;12.348;2023-02-21T01:26:44;7.50;;;3.50;;
18190;SDS011;47004;51.366;12.348;2023-02-21T01:29:04;7.70;;;4.03;;
18190;SDS011;47004;51.366;12.348;2023-02-21T01:31:25;7.93;;;3.90;;
18190;SDS011;47004;51.366;12.348;2023-02-21T01:33:44;8.97;;;4.27;;
18190;SDS011;47004;51.366;12.348;2023-02-21T01:36:04;8.50;;;4.37;;
18190;SDS011;47004;51.366;12.348;2023-02-21T01:38:24;7.63;;;4.13;;
18190;SDS011;47004;51.366;12.348;2023-02-21T01:40:43;7.37;;;4.10;;
18190;SDS011;47004;51.366;12.348;2023-02-21T01:43:07;8.83;;;4.50;;
18190;SDS011;47004;51.366;12.348;2023-02-21T01:45:46;8.10;;;3.77;;
18190;SDS011;47004;51.366;12.348;2023-02-21T01:48:09;7.43;;;3.87;;
18190;SDS011;47004;51.366;12.348;2023-02-21T01:50:31;6.23;;;3.60;;
18190;SDS011;47004;51.366;12.348;2023-02-21T01:52:50;8.27;;;4.20;;
18190;SDS011;47004;51.366;12.348;2023-02-21T01:55:10;7.60;;;3.90;;
18190;SDS011;47004;51.366;12.348;2023-02-21T01:57:30;6.13;;;3.73;;
18190;SDS011;47004;51.366;12.348;2023-02-21T01:59:50;10.23;;;4.10;;
18190;SDS011;47004;51.366;12.348;2023-02-21T02:02:14;6.63;;;3.70;;
18190;SDS011;47004;51.366;12.348;2023-02-21T02:04:38;7.63;;;4.10;;
18190;SDS011;47004;51.366;12.348;2023-02-21T02:06:59;7.00;;;3.60;;
18190;SDS011;47004;51.366;12.348;2023-02-21T02:09:20;6.97;;;3.30;;
18190;SDS011;47004;51.366;12.348;2023-02-21T02:11:44;7.57;;;3.57;;
18190;SDS011;47004;51.366;12.348;2023-02-21T02:14:38;8.03;;;3.60;;
18190;SDS011;47004;51.366;12.348;2023-02-21T02:16:51;6.53;;;3.40;;
18190;SDS011;47004;51.366;12.348;2023-02-21T02:19:06;7.17;;;3.80;;
18190;SDS011;47004;51.366;12.348;2023-02-21T02:22:00;6.47;;;3.20;;
18190;SDS011;47004;51.366;12.348;2023-02-21T02:24:34;10.70;;;4.43;;
18190;SDS011;47004;51.366;12.348;2023-02-21T02:27:03;7.23;;;4.30;;
18190;SDS011;47004;51.366;12.348;2023-02-21T02:29:54;8.33;;;3.97;;
18190;SDS011;47004;51.366;12.348;2023-02-21T02:32:27;9.23;;;3.60;;
18190;SDS011;47004;51.366;12.348;2023-02-21T02:34:42;8.33;;;4.07;;
18190;SDS011;47004;51.366;12.348;2023-02-21T02:36:55;9.40;;;4.60;;
18190;SDS011;47004;51.366;12.348;2023-02-21T02:39:04;8.13;;;4.27;;
18190;SDS011;47004;51.366;12.348;2023-02-21T02:41:17;8.23;;;4.13;;
18190;SDS011;47004;51.366;12.348;2023-02-21T02:43:25;9.27;;;4.47;;
18190;SDS011;47004;51.366;12.348;2023-02-21T02:45:33;10.60;;;4.07;;
18190;SDS011;47004;51.366;12.348;2023-02-21T02:47:39;8.80;;;4.40;;
18190;SDS011;47004;51.366;12.348;2023-02-21T02:49:45;7.77;;;3.90;;
18190;SDS011;47004;51.366;12.348;2023-02-21T02:51:48;9.07;;;4.67;;
18190;SDS011;47004;51.366;12.348;2023-02-21T02:53:50;9.13;;;4.33;;
18190;SDS011;47004;51.366;12.348;2023-02-21T02:55:53;9.83;;;4.63;;
18190;SDS011;47004;51.366;12.348;2023-02-21T02:58:00;10.10;;;4.83;;
18190;SDS011;47004;51.366;12.348;2023-02-21T03:00:04;10.30;;;4.63;;
18190;SDS011;47004;51.366;12.348;2023-02-21T03:02:23;9.90;;;4.50;;
18190;SDS011;47004;51.366;12.348;2023-02-21T03:05:01;12.00;;;5.30;;
18190;SDS011;47004;51.366;12.348;2023-02-21T03:07:16;9.17;;;4.63;;
18190;SDS011;47004;51.366;12.348;2023-02-21T03:09:25;10.47;;;5.07;;
18190;SDS011;47004;51.366;12.348;2023-02-21T03:11:29;9.73;;;5.00;;
18190;SDS011;47004;51.366;12.348;2023-02-21T03:13:33;13.07;;;5.47;;
18190;SDS011;47004;51.366;12.348;2023-02-21T03:15:39;9.93;;;5.13;;
18190;SDS011;47004;51.366;12.348;2023-02-21T03:17:50;11.27;;;5.93;;
18190;SDS011;47004;51.366;12.348;2023-02-21T03:19:57;11.87;;;6.07;;
18190;SDS011;47004;51.366;12.348;2023-02-21T03:22:02;12.00;;;5.37;;
18190;SDS011;47004;51.366;12.348;2023-02-21T03:24:07;10.67;;;5.60;;
18190;SDS011;47004;51.366;12.348;2023-02-21T03:26:13;11.37;;;5.30;;
18190;SDS011;47004;51.366;12.348;2023-02-21T03:28:17;12.30;;;6.13;;
18190;SDS011;47004;51.366;12.348;2023-02-21T03:30:20;11.73;;;5.80;;
18190;SDS011;47004;51.366;12.348;2023-02-21T03:32:23;12.77;;;6.20;;
18190;SDS011;47004;51.366;12.348;2023-02-21T03:34:26;11.17;;;6.13;;
18190;SDS011;47004;51.366;12.348;2023-02-21T03:36:30;12.03;;;6.00;;
18190;SDS011;47004;51.366;12.348;2023-02-21T03:38:32;10.67;;;5.43;;
18190;SDS011;47004;51.366;12.348;2023-02-21T03:40:34;13.63;;;6.50;;
18190;SDS011;47004;51.366;12.348;2023-02-21T03:42:36;12.70;;;6.60;;
18190;SDS011;47004;51.366;12.348;2023-02-21T03:44:38;14.97;;;6.20;;
18190;SDS011;47004;51.366;12.348;2023-02-21T03:46:40;11.47;;;6.10;;
18190;SDS011;47004;51.366;12.348;2023-02-21T03:48:41;14.17;;;6.57;;
18190;SDS011;47004;51.366;12.348;2023-02-21T03:50:43;13.40;;;6.27;;
18190;SDS011;47004;51.366;12.348;2023-02-21T03:52:47;13.63;;;6.70;;
18190;SDS011;47004;51.366;12.348;2023-02-21T03:54:48;11.23;;;6.10;;
18190;SDS011;47004;51.366;12.348;2023-02-21T03:56:50;11.17;;;6.00;;
18190;SDS011;47004;51.366;12.348;2023-02-21T03:58:52;13.60;;;6.90;;
18190;SDS011;47004;51.366;12.348;2023-02-21T04:00:54;11.40;;;5.73;;
18190;SDS011;47004;51.366;12.348;2023-02-21T04:02:56;12.00;;;6.27;;
18190;SDS011;47004;51.366;12.348;2023-02-21T04:04:58;11.70;;;6.43;;
18190;SDS011;47004;51.366;12.348;2023-02-21T04:07:00;12.13;;;6.30;;
18190;SDS011;47004;51.366;12.348;2023-02-21T04:09:04;12.43;;;6.70;;
18190;SDS011;47004;51.366;12.348;2023-02-21T04:11:06;12.73;;;6.60;;
18190;SDS011;47004;51.366;12.348;2023-02-21T04:13:08;11.73;;;6.20;;
18190;SDS011;47004;51.366;12.348;2023-02-21T04:15:10;14.53;;;6.60;;
18190;SDS011;47004;51.366;12.348;2023-02-21T04:17:12;13.00;;;6.80;;
18190;SDS011;47004;51.366;12.348;2023-02-21T04:19:15;11.67;;;6.43;;
18190;SDS011;47004;51.366;12.348;2023-02-21T04:21:17;13.93;;;6.73;;
18190;SDS011;47004;51.366;12.348;2023-02-21T04:23:19;13.97;;;6.83;;
18190;SDS011;47004;51.366;12.348;2023-02-21T04:25:23;12.63;;;6.80;;
18190;SDS011;47004;51.366;12.348;2023-02-21T04:27:25;14.30;;;6.90;;
18190;SDS011;47004;51.366;12.348;2023-02-21T04:29:27;12.43;;;6.80;;
18190;SDS011;47004;51.366;12.348;2023-02-21T04:31:29;13.87;;;6.80;;
18190;SDS011;47004;51.366;12.348;2023-02-21T04:33:31;16.67;;;7.60;;
18190;SDS011;47004;51.366;12.348;2023-02-21T04:35:33;14.27;;;7.10;;
18190;SDS011;47004;51.366;12.348;2023-02-21T04:37:35;14.47;;;7.23;;
18190;SDS011;47004;51.366;12.348;2023-02-21T04:39:37;17.20;;;7.30;;
18190;SDS011;47004;51.366;12.348;2023-02-21T04:41:40;16.90;;;8.33;;
18190;SDS011;47004;51.366;12.348;2023-02-21T04:43:42;15.23;;;7.07;;
18190;SDS011;47004;51.366;12.348;2023-02-21T04:45:44;17.70;;;7.67;;
18190;SDS011;47004;51.366;12.348;2023-02-21T04:47:46;14.10;;;7.23;;
18190;SDS011;47004;51.366;12.348;2023-02-21T04:49:48;16.00;;;7.50;;
18190;SDS011;47004;51.366;12.348;2023-02-21T04:51:51;15.80;;;7.97;;
18190;SDS011;47004;51.366;12.348;2023-02-21T04:53:53;16.37;;;8.30;;
18190;SDS011;47004;51.366;12.348;2023-02-21T04:55:55;15.77;;;7.97;;
18190;SDS011;47004;51.366;12.348;2023-02-21T04:57:59;15.83;;;7.97;;
18190;SDS011;47004;51.366;12.348;2023-02-21T05:00:01;14.80;;;8.00;;
18190;SDS011;47004;51.366;12.348;2023-02-21T05:02:06;14.40;;;7.37;;
18190;SDS011;47004;51.366;12.348;2023-02-21T05:04:08;15.03;;;7.57;;
18190;SDS011;47004;51.366;12.348;2023-02-21T05:06:15;17.00;;;7.77;;
18190;SDS011;47004;51.366;12.348;2023-02-21T05:08:18;15.53;;;7.90;;
18190;SDS011;47004;51.366;12.348;2023-02-21T05:10:20;15.33;;;7.60;;
18190;SDS011;47004;51.366;12.348;2023-02-21T05:12:22;15.37;;;7.47;;
18190;SDS011;47004;51.366;12.348;2023-02-21T05:14:25;17.13;;;7.80;;
18190;SDS011;47004;51.366;12.348;2023-02-21T05:16:27;18.83;;;8.20;;
18190;SDS011;47004;51.366;12.348;2023-02-21T05:18:29;17.07;;;8.13;;
18190;SDS011;47004;51.366;12.348;2023-02-21T05:20:33;16.33;;;8.23;;
18190;SDS011;47004;51.366;12.348;2023-02-21T05:22:35;19.07;;;8.00;;
18190;SDS011;47004;51.366;12.348;2023-02-21T05:24:39;14.70;;;7.63;;
18190;SDS011;47004;51.366;12.348;2023-02-21T05:26:42;17.77;;;7.87;;
18190;SDS011;47004;51.366;12.348;2023-02-21T05:28:44;15.83;;;8.07;;
18190;SDS011;47004;51.366;12.348;2023-02-21T05:30:47;16.27;;;8.37;;
18190;SDS011;47004;51.366;12.348;2023-02-21T05:32:49;17.57;;;8.17;;
18190;SDS011;47004;51.366;12.348;2023-02-21T05:34:51;20.07;;;8.67;;
18190;SDS011;47004;51.366;12.348;2023-02-21T05:36:53;18.03;;;8.50;;
18190;SDS011;47004;51.366;12.348;2023-02-21T05:38:55;19.07;;;9.00;;
18190;SDS011;47004;51.366;12.348;2023-02-21T05:40:57;21.97;;;9.70;;
18190;SDS011;47004;51.366;12.348;2023-02-21T05:42:59;18.73;;;8.90;;
18190;SDS011;47004;51.366;12.348;2023-02-21T05:45:01;19.13;;;8.60;;
18190;SDS011;47004;51.366;12.348;2023-02-21T05:47:07;21.60;;;10.07;;
18190;SDS011;47004;51.366;12.348;2023-02-21T05:49:10;21.90;;;9.40;;
18190;SDS011;47004;51.366;12.348;2023-02-21T05:51:13;19.90;;;9.23;;
18190;SDS011;47004;51.366;12.348;2023-02-21T05:53:15;21.80;;;9.70;;
18190;SDS011;47004;51.366;12.348;2023-02-21T05:55:17;17.30;;;8.87;;
18190;SDS011;47004;51.366;12.348;2023-02-21T05:57:19;17.13;;;8.73;;
18190;SDS011;47004;51.366;12.348;2023-02-21T05:59:21;22.07;;;9.40;;
18190;SDS011;47004;51.366;12.348;2023-02-21T06:01:24;19.13;;;8.77;;
18190;SDS011;47004;51.366;12.348;2023-02-21T06:03:29;20.10;;;9.70;;
18190;SDS011;47004;51.366;12.348;2023-02-21T06:05:32;16.80;;;8.43;;
18190;SDS011;47004;51.366;12.348;2023-02-21T06:07:34;19.33;;;9.23;;
18190;SDS011;47004;51.366;12.348;2023-02-21T06:09:36;17.37;;;9.07;;
18190;SDS011;47004;51.366;12.348;2023-02-21T06:11:38;19.33;;;9.73;;
18190;SDS011;47004;51.366;12.348;2023-02-21T06:13:40;19.37;;;9.00;;
18190;SDS011;47004;51.366;12.348;2023-02-21T06:15:42;19.77;;;9.00;;
18190;SDS011;47004;51.366;12.348;2023-02-21T06:17:44;18.57;;;8.97;;
18190;SDS011;47004;51.366;12.348;2023-02-21T06:19:47;19.83;;;9.53;;
18190;SDS011;47004;51.366;12.348;2023-02-21T06:21:49;24.83;;;10.40;;
18190;SDS011;47004;51.366;12.348;2023-02-21T06:23:51;22.20;;;9.10;;
18190;SDS011;47004;51.366;12.348;2023-02-21T06:25:53;22.80;;;10.37;;
18190;SDS011;47004;51.366;12.348;2023-02-21T06:27:55;20.33;;;9.17;;
18190;SDS011;47004;51.366;12.348;2023-02-21T06:29:57;19.70;;;9.40;;
18190;SDS011;47004;51.366;12.348;2023-02-21T06:31:59;22.50;;;10.17;;
18190;SDS011;47004;51.366;12.348;2023-02-21T06:34:02;22.23;;;10.03;;
18190;SDS011;47004;51.366;12.348;2023-02-21T06:36:06;19.27;;;9.67;;
18190;SDS011;47004;51.366;12.348;2023-02-21T06:38:12;23.47;;;10.10;;
18190;SDS011;47004;51.366;12.348;2023-02-21T06:40:13;19.73;;;9.70;;
18190;SDS011;47004;51.366;12.348;2023-02-21T06:42:16;22.67;;;9.80;;
18190;SDS011;47004;51.366;12.348;2023-02-21T06:44:18;22.33;;;9.70;;
18190;SDS011;47004;51.366;12.348;2023-02-21T06:46:21;21.63;;;9.93;;
18190;SDS011;47004;51.366;12.348;2023-02-21T06:48:24;19.87;;;9.70;;
18190;SDS011;47004;51.366;12.348;2023-02-21T06:50:26;21.37;;;10.43;;
18190;SDS011;47004;51.366;12.348;2023-02-21T06:52:30;22.20;;;10.00;;
18190;SDS011;47004;51.366;12.348;2023-02-21T06:54:32;18.60;;;9.53;;
18190;SDS011;47004;51.366;12.348;2023-02-21T06:56:35;19.77;;;9.63;;
18190;SDS011;47004;51.366;12.348;2023-02-21T06:58:37;19.60;;;9.93;;
18190;SDS011;47004;51.366;12.348;2023-02-21T07:00:39;21.60;;;10.10;;
18190;SDS011;47004;51.366;12.348;2023-02-21T07:02:41;21.93;;;10.47;;
18190;SDS011;47004;51.366;12.348;2023-02-21T07:04:43;21.50;;;10.17;;
18190;SDS011;47004;51.366;12.348;2023-02-21T07:06:46;21.70;;;10.00;;
18190;SDS011;47004;51.366;12.348;2023-02-21T07:08:49;19.27;;;9.70;;
18190;SDS011;47004;51.366;12.348;2023-02-21T07:10:51;21.70;;;9.70;;
18190;SDS011;47004;51.366;12.348;2023-02-21T07:12:53;20.07;;;9.70;;
18190;SDS011;47004;51.366;12.348;2023-02-21T07:14:55;18.13;;;9.10;;
18190;SDS011;47004;51.366;12.348;2023-02-21T07:16:57;20.00;;;9.23;;
18190;SDS011;47004;51.366;12.348;2023-02-21T07:18:59;19.27;;;9.37;;
18190;SDS011;47004;51.366;12.348;2023-02-21T07:21:01;18.93;;;8.97;;
18190;SDS011;47004;51.366;12.348;2023-02-21T07:23:04;16.63;;;8.70;;
18190;SDS011;47004;51.366;12.348;2023-02-21T07:25:07;19.20;;;9.50;;
18190;SDS011;47004;51.366;12.348;2023-02-21T07:27:14;17.37;;;8.90;;
18190;SDS011;47004;51.366;12.348;2023-02-21T07:29:16;18.03;;;8.60;;
18190;SDS011;47004;51.366;12.348;2023-02-21T07:31:17;17.67;;;8.83;;
18190;SDS011;47004;51.366;12.348;2023-02-21T07:33:20;18.40;;;8.80;;
18190;SDS011;47004;51.366;12.348;2023-02-21T07:35:22;19.80;;;9.27;;
18190;SDS011;47004;51.366;12.348;2023-02-21T07:37:24;16.23;;;8.67;;
18190;SDS011;47004;51.366;12.348;2023-02-21T07:39:26;17.30;;;8.03;;
18190;SDS011;47004;51.366;12.348;2023-02-21T07:41:29;20.63;;;9.10;;
18190;SDS011;47004;51.366;12.348;2023-02-21T07:43:31;19.37;;;9.40;;
18190;SDS011;47004;51.366;12.348;2023-02-21T07:45:36;17.43;;;8.67;;
18190;SDS011;47004;51.366;12.348;2023-02-21T07:47:38;17.53;;;8.23;;
18190;SDS011;47004;51.366;12.348;2023-02-21T07:49:39;16.80;;;8.10;;
18190;SDS011;47004;51.366;12.348;2023-02-21T07:51:42;17.60;;;8.67;;
18190;SDS011;47004;51.366;12.348;2023-02-21T07:53:44;16.27;;;7.87;;
18190;SDS011;47004;51.366;12.348;2023-02-21T07:55:45;17.63;;;8.13;;
18190;SDS011;47004;51.366;12.348;2023-02-21T07:57:49;20.50;;;8.93;;
18190;SDS011;47004;51.366;12.348;2023-02-21T07:59:51;16.20;;;7.67;;
18190;SDS011;47004;51.366;12.348;2023-02-21T08:01:53;15.73;;;7.57;;
18190;SDS011;47004;51.366;12.348;2023-02-21T08:03:55;18.03;;;8.63;;
18190;SDS011;47004;51.366;12.348;2023-02-21T08:05:57;15.27;;;7.93;;
18190;SDS011;47004;51.366;12.348;2023-02-21T08:07:59;16.93;;;8.07;;
18190;SDS011;47004;51.366;12.348;2023-02-21T08:10:01;17.50;;;8.10;;
18190;SDS011;47004;51.366;12.348;2023-02-21T08:12:03;17.30;;;8.63;;
18190;SDS011;47004;51.366;12.348;2023-02-21T08:14:07;19.23;;;8.37;;
18190;SDS011;47004;51.366;12.348;2023-02-21T08:16:09;15.17;;;8.00;;
18190;SDS011;47004;51.366;12.348;2023-02-21T08:18:13;16.53;;;8.00;;
18190;SDS011;47004;51.366;12.348;2023-02-21T08:20:18;16.90;;;8.10;;
18190;SDS011;47004;51.366;12.348;2023-02-21T08:22:20;20.17;;;8.23;;
18190;SDS011;47004;51.366;12.348;2023-02-21T08:24:22;16.73;;;7.43;;
18190;SDS011;47004;51.366;12.348;2023-02-21T08:26:24;15.87;;;7.60;;
18190;SDS011;47004;51.366;12.348;2023-02-21T08:28:26;15.93;;;8.50;;
18190;SDS011;47004;51.366;12.348;2023-02-21T08:30:29;16.33;;;8.33;;
18190;SDS011;47004;51.366;12.348;2023-02-21T08:32:31;16.63;;;8.17;;
18190;SDS011;47004;51.366;12.348;2023-02-21T08:34:34;16.53;;;8.00;;
18190;SDS011;47004;51.366;12.348;2023-02-21T08:36:37;17.20;;;8.30;;
18190;SDS011;47004;51.366;12.348;2023-02-21T08:38:40;18.10;;;8.13;;
18190;SDS011;47004;51.366;12.348;2023-02-21T08:40:42;15.77;;;8.10;;
18190;SDS011;47004;51.366;12.348;2023-02-21T08:42:47;17.07;;;7.97;;
18190;SDS011;47004;51.366;12.348;2023-02-21T08:44:49;18.07;;;8.30;;
18190;SDS011;47004;51.366;12.348;2023-02-21T08:46:52;18.43;;;8.87;;
18190;SDS011;47004;51.366;12.348;2023-02-21T08:48:54;18.83;;;8.23;;
18190;SDS011;47004;51.366;12.348;2023-02-21T08:50:56;15.47;;;7.90;;
18190;SDS011;47004;51.366;12.348;2023-02-21T08:52:58;18.03;;;8.73;;
18190;SDS011;47004;51.366;12.348;2023-02-21T08:55:00;19.30;;;8.33;;
18190;SDS011;47004;51.366;12.348;2023-02-21T08:57:02;16.80;;;8.33;;
18190;SDS011;47004;51.366;12.348;2023-02-21T08:59:04;16.27;;;8.37;;
18190;SDS011;47004;51.366;12.348;2023-02-21T09:01:08;18.07;;;8.70;;
18190;SDS011;47004;51.366;12.348;2023-02-21T09:03:12;18.37;;;8.70;;
18190;SDS011;47004;51.366;12.348;2023-02-21T09:05:15;14.77;;;7.67;;
18190;SDS011;47004;51.366;12.348;2023-02-21T09:07:19;17.07;;;8.20;;
18190;SDS011;47004;51.366;12.348;2023-02-21T09:09:22;16.93;;;8.57;;
18190;SDS011;47004;51.366;12.348;2023-02-21T09:11:24;16.83;;;9.10;;
18190;SDS011;47004;51.366;12.348;2023-02-21T09:13:26;19.97;;;8.77;;
18190;SDS011;47004;51.366;12.348;2023-02-21T09:15:28;19.43;;;8.93;;
18190;SDS011;47004;51.366;12.348;2023-02-21T09:17:30;18.33;;;8.77;;
18190;SDS011;47004;51.366;12.348;2023-02-21T09:19:34;18.60;;;9.17;;
18190;SDS011;47004;51.366;12.348;2023-02-21T09:21:36;17.87;;;8.80;;
18190;SDS011;47004;51.366;12.348;2023-02-21T09:23:44;14.30;;;7.37;;
18190;SDS011;47004;51.366;12.348;2023-02-21T09:25:46;18.67;;;8.93;;
18190;SDS011;47004;51.366;12.348;2023-02-21T09:27:48;19.80;;;9.70;;
18190;SDS011;47004;51.366;12.348;2023-02-21T09:29:51;26.87;;;9.80;;
18190;SDS011;47004;51.366;12.348;2023-02-21T09:31:53;18.03;;;9.13;;
18190;SDS011;47004;51.366;12.348;2023-02-21T09:33:55;18.80;;;9.30;;
18190;SDS011;47004;51.366;12.348;2023-02-21T09:35:59;16.83;;;8.53;;
18190;SDS011;47004;51.366;12.348;2023-02-21T09:38:01;18.30;;;9.30;;
18190;SDS011;47004;51.366;12.348;2023-02-21T09:40:06;15.43;;;8.27;;
18190;SDS011;47004;51.366;12.348;2023-02-21T09:42:16;16.87;;;8.60;;
18190;SDS011;47004;51.366;12.348;2023-02-21T09:44:19;18.53;;;7.87;;
18190;SDS011;47004;51.366;12.348;2023-02-21T09:46:28;16.50;;;8.67;;
18190;SDS011;47004;51.366;12.348;2023-02-21T09:48:36;15.83;;;8.00;;
18190;SDS011;47004;51.366;12.348;2023-02-21T09:50:40;16.10;;;8.47;;
18190;SDS011;47004;51.366;12.348;2023-02-21T09:52:46;17.77;;;8.93;;
18190;SDS011;47004;51.366;12.348;2023-02-21T09:54:50;17.97;;;8.60;;
18190;SDS011;47004;51.366;12.348;2023-02-21T09:56:57;16.50;;;8.47;;
18190;SDS011;47004;51.366;12.348;2023-02-21T09:59:02;16.57;;;8.80;;
18190;SDS011;47004;51.366;12.348;2023-02-21T10:01:05;18.17;;;8.67;;
18190;SDS011;47004;51.366;12.348;2023-02-21T10:03:25;16.43;;;7.77;;
18190;SDS011;47004;51.366;12.348;2023-02-21T10:05:41;16.67;;;7.83;;
18190;SDS011;47004;51.366;12.348;2023-02-21T10:07:48;13.70;;;7.53;;
18190;SDS011;47004;51.366;12.348;2023-02-21T10:09:58;15.00;;;7.57;;
18190;SDS011;47004;51.366;12.348;2023-02-21T10:12:07;14.20;;;7.43;;
18190;SDS011;47004;51.366;12.348;2023-02-21T10:14:18;13.80;;;7.43;;
18190;SDS011;47004;51.366;12.348;2023-02-21T10:16:28;16.37;;;7.67;;
18190;SDS011;47004;51.366;12.348;2023-02-21T10:18:35;15.77;;;7.83;;
18190;SDS011;47004;51.366;12.348;2023-02-21T10:20:42;17.60;;;7.57;;
18190;SDS011;47004;51.366;12.348;2023-02-21T10:22:49;15.07;;;7.27;;
18190;SDS011;47004;51.366;12.348;2023-02-21T10:24:52;15.60;;;7.80;;
18190;SDS011;47004;51.366;12.348;2023-02-21T10:26:56;17.37;;;7.83;;
18190;SDS011;47004;51.366;12.348;2023-02-21T10:29:02;14.53;;;7.27;;
18190;SDS011;47004;51.366;12.348;2023-02-21T10:31:19;14.83;;;7.07;;
18190;SDS011;47004;51.366;12.348;2023-02-21T10:33:25;14.77;;;7.13;;
18190;SDS011;47004;51.366;12.348;2023-02-21T10:35:27;14.23;;;6.97;;
18190;SDS011;47004;51.366;12.348;2023-02-21T10:37:34;14.73;;;7.00;;
18190;SDS011;47004;51.366;12.348;2023-02-21T10:39:42;14.33;;;7.23;;
18190;SDS011;47004;51.366;12.348;2023-02-21T10:41:49;15.50;;;6.93;;
18190;SDS011;47004;51.366;12.348;2023-02-21T10:43:53;13.43;;;6.90;;
18190;SDS011;47004;51.366;12.348;2023-02-21T10:46:00;13.53;;;7.07;;
18190;SDS011;47004;51.366;12.348;2023-02-21T10:48:06;13.50;;;6.90;;
18190;SDS011;47004;51.366;12.348;2023-02-21T10:50:10;12.17;;;6.13;;
18190;SDS011;47004;51.366;12.348;2023-02-21T10:52:13;13.23;;;6.63;;
18190;SDS011;47004;51.366;12.348;2023-02-21T10:54:18;12.03;;;6.37;;
18190;SDS011;47004;51.366;12.348;2023-02-21T10:56:23;13.90;;;6.10;;
18190;SDS011;47004;51.366;12.348;2023-02-21T10:58:27;11.23;;;5.80;;
18190;SDS011;47004;51.366;12.348;2023-02-21T11:00:31;11.97;;;6.07;;
18190;SDS011;47004;51.366;12.348;2023-02-21T11:02:36;12.43;;;6.63;;
18190;SDS011;47004;51.366;12.348;2023-02-21T11:04:40;11.00;;;5.30;;
18190;SDS011;47004;51.366;12.348;2023-02-21T11:06:43;13.03;;;6.23;;
18190;SDS011;47004;51.366;12.348;2023-02-21T11:08:47;11.60;;;6.17;;
18190;SDS011;47004;51.366;12.348;2023-02-21T11:10:49;10.90;;;5.50;;
18190;SDS011;47004;51.366;12.348;2023-02-21T11:13:04;14.03;;;6.10;;
18190;SDS011;47004;51.366;12.348;2023-02-21T11:15:14;11.47;;;5.60;;
18190;SDS011;47004;51.366;12.348;2023-02-21T11:17:18;9.93;;;5.00;;
18190;SDS011;47004;51.366;12.348;2023-02-21T11:19:21;9.57;;;5.37;;
18190;SDS011;47004;51.366;12.348;2023-02-21T11:21:23;10.17;;;4.93;;
18190;SDS011;47004;51.366;12.348;2023-02-21T11:23:26;11.63;;;5.60;;
18190;SDS011;47004;51.366;12.348;2023-02-21T11:25:30;11.10;;;4.80;;
18190;SDS011;47004;51.366;12.348;2023-02-21T11:27:38;9.77;;;4.97;;
18190;SDS011;47004;51.366;12.348;2023-02-21T11:29:42;10.87;;;5.03;;
18190;SDS011;47004;51.366;12.348;2023-02-21T11:31:47;14.00;;;5.10;;
18190;SDS011;47004;51.366;12.348;2023-02-21T11:33:54;10.67;;;4.87;;
18190;SDS011;47004;51.366;12.348;2023-02-21T11:36:06;11.10;;;4.97;;
18190;SDS011;47004;51.366;12.348;2023-02-21T11:40:39;9.60;;;4.97;;
18190;SDS011;47004;51.366;12.348;2023-02-21T11:42:43;12.07;;;5.07;;
18190;SDS011;47004;51.366;12.348;2023-02-21T11:44:46;11.77;;;5.03;;
18190;SDS011;47004;51.366;12.348;2023-02-21T11:46:51;10.40;;;5.27;;
18190;SDS011;47004;51.366;12.348;2023-02-21T11:49:02;10.10;;;5.13;;
18190;SDS011;47004;51.366;12.348;2023-02-21T11:51:17;12.20;;;5.60;;
18190;SDS011;47004;51.366;12.348;2023-02-21T11:53:31;9.23;;;5.07;;
18190;SDS011;47004;51.366;12.348;2023-02-21T11:55:39;10.60;;;5.93;;
18190;SDS011;47004;51.366;12.348;2023-02-21T11:57:50;12.40;;;5.03;;
18190;SDS011;47004;51.366;12.348;2023-02-21T12:00:04;9.87;;;4.83;;
18190;SDS011;47004;51.366;12.348;2023-02-21T12:02:18;11.13;;;5.07;;
18190;SDS011;47004;51.366;12.348;2023-02-21T12:04:38;10.13;;;5.07;;
18190;SDS011;47004;51.366;12.348;2023-02-21T12:06:53;11.20;;;4.73;;
18190;SDS011;47004;51.366;12.348;2023-02-21T12:09:06;10.87;;;4.77;;
18190;SDS011;47004;51.366;12.348;2023-02-21T12:11:24;11.50;;;5.10;;
18190;SDS011;47004;51.366;12.348;2023-02-21T12:13:58;9.90;;;4.70;;
18190;SDS011;47004;51.366;12.348;2023-02-21T12:16:16;12.07;;;4.93;;
18190;SDS011;47004;51.366;12.348;2023-02-21T12:18:30;13.13;;;5.40;;
18190;SDS011;47004;51.366;12.348;2023-02-21T12:21:03;9.13;;;4.67;;
18190;SDS011;47004;51.366;12.348;2023-02-21T12:23:14;9.50;;;4.73;;
18190;SDS011;47004;51.366;12.348;2023-02-21T12:25:28;8.90;;;4.77;;
18190;SDS011;47004;51.366;12.348;2023-02-21T12:27:37;11.47;;;5.33;;
18190;SDS011;47004;51.366;12.348;2023-02-21T12:29:53;9.17;;;4.80;;
18190;SDS011;47004;51.366;12.348;2023-02-21T12:32:13;8.53;;;4.33;;